createdAt,value
2023-02-20T00:02:02.809Z,4.85
2023-02-20T00:04:30.447Z,4.77
2023-02-20T00:06:58.136Z,4.72
2023-02-20T00:09:25.797Z,4.68
2023-02-20T00:11:53.465Z,4.65
2023-02-20T00:14:21.228Z,4.61
2023-02-20T00:16:49.014Z,4.57
2023-02-20T00:19:16.973Z,4.57
2023-02-20T00:21:49.028Z,4.57
2023-02-20T00:24:17.004Z,4.56
2023-02-20T00:26:49.231Z,4.57
2023-02-20T00:29:17.494Z,4.58
2023-02-20T00:31:51.898Z,4.57
2023-02-20T00:34:20.465Z,4.55
2023-02-20T00:36:48.246Z,4.56
2023-02-20T00:39:16.272Z,4.57
2023-02-20T00:41:45.459Z,4.58
2023-02-20T00:44:13.591Z,4.59
2023-02-20T00:46:41.310Z,4.61
2023-02-20T00:49:09.106Z,4.63
2023-02-20T00:51:49.263Z,4.64
2023-02-20T00:54:16.981Z,4.65
2023-02-20T00:56:44.617Z,4.66
2023-02-20T00:59:12.365Z,4.67
2023-02-20T01:01:40.077Z,4.89
2023-02-20T01:04:07.934Z,6.37
2023-02-20T01:06:35.634Z,8.09
2023-02-20T01:09:03.724Z,8.84
2023-02-20T01:11:31.512Z,8.31
2023-02-20T01:14:00.346Z,7.67
2023-02-20T01:16:28.339Z,7.21
2023-02-20T01:18:56.556Z,6.88
2023-02-20T01:21:25.082Z,6.64
2023-02-20T01:23:52.727Z,6.43
2023-02-20T01:26:21.370Z,6.26
2023-02-20T01:28:49.927Z,6.10
2023-02-20T01:31:18.187Z,5.97
2023-02-20T01:33:46.002Z,5.84
2023-02-20T01:36:14.366Z,5.72
2023-02-20T01:38:42.710Z,5.61
2023-02-20T01:41:11.439Z,5.52
2023-02-20T01:43:39.075Z,5.45
2023-02-20T01:46:28.908Z,5.37
2023-02-20T01:49:10.369Z,5.28
2023-02-20T01:51:43.121Z,5.20
2023-02-20T01:54:14.993Z,5.13
2023-02-20T01:56:43.595Z,5.05
2023-02-20T01:59:12.262Z,4.98
2023-02-20T02:01:40.343Z,4.90
2023-02-20T02:04:09.874Z,4.83
2023-02-20T02:06:41.412Z,4.75
2023-02-20T02:09:15.856Z,4.68
2023-02-20T02:11:43.662Z,4.62
2023-02-20T02:14:11.341Z,4.57
2023-02-20T02:16:53.750Z,4.52
2023-02-20T02:19:40.235Z,4.45
2023-02-20T02:22:41.104Z,4.41
2023-02-20T02:25:14.921Z,4.36
2023-02-20T02:28:10.820Z,4.32
2023-02-20T02:31:14.132Z,4.28
2023-02-20T02:34:00.393Z,4.23
2023-02-20T02:36:47.900Z,4.48
2023-02-20T02:39:35.482Z,6.22
2023-02-20T02:42:25.373Z,7.98
2023-02-20T02:44:55.730Z,8.63
2023-02-20T02:47:46.073Z,7.95
2023-02-20T02:50:40.150Z,7.18
2023-02-20T02:53:10.858Z,6.66
2023-02-20T02:55:38.519Z,6.34
2023-02-20T02:58:06.754Z,6.10
2023-02-20T03:00:48.086Z,5.88
2023-02-20T03:03:32.894Z,5.67
2023-02-20T03:06:13.069Z,5.47
2023-02-20T03:08:57.751Z,5.31
2023-02-20T03:11:28.313Z,5.17
2023-02-20T03:14:25.977Z,5.07
2023-02-20T03:17:03.448Z,4.98
2023-02-20T03:19:52.754Z,4.91
2023-02-20T03:22:37.006Z,4.82
2023-02-20T03:25:14.209Z,4.75
2023-02-20T03:27:51.170Z,4.69
2023-02-20T03:30:24.963Z,4.64
2023-02-20T03:33:32.041Z,4.61
2023-02-20T03:36:19.594Z,4.60
2023-02-20T03:39:11.274Z,4.60
2023-02-20T03:41:58.617Z,4.60
2023-02-20T03:44:28.492Z,4.93
2023-02-20T03:46:57.648Z,6.54
2023-02-20T03:49:47.104Z,8.16
2023-02-20T03:52:17.098Z,8.97
2023-02-20T03:54:44.923Z,8.32
2023-02-20T03:57:16.327Z,7.65
2023-02-20T03:59:51.843Z,7.16
2023-02-20T04:02:27.594Z,6.83
2023-02-20T04:04:58.551Z,6.56
2023-02-20T04:07:34.792Z,6.35
2023-02-20T04:10:07.018Z,6.17
2023-02-20T04:12:38.000Z,6.01
2023-02-20T04:15:07.240Z,5.88
2023-02-20T04:17:40.579Z,5.78
2023-02-20T04:20:09.497Z,5.70
2023-02-20T04:22:43.561Z,5.62
2023-02-20T04:25:17.618Z,5.55
2023-02-20T04:27:45.642Z,5.48
2023-02-20T04:30:13.724Z,5.41
2023-02-20T04:32:41.541Z,5.36
2023-02-20T04:35:15.818Z,5.31
2023-02-20T04:37:43.993Z,5.26
2023-02-20T04:40:13.554Z,5.22
2023-02-20T04:42:41.242Z,5.18
2023-02-20T04:45:09.059Z,5.16
2023-02-20T04:47:37.100Z,5.38
2023-02-20T04:50:06.752Z,6.59
2023-02-20T04:52:34.564Z,7.64
2023-02-20T04:55:02.230Z,8.40
2023-02-20T04:57:30.520Z,8.13
2023-02-20T04:59:58.343Z,7.59
2023-02-20T05:02:26.116Z,7.18
2023-02-20T05:04:53.956Z,6.90
2023-02-20T05:07:21.656Z,6.68
2023-02-20T05:09:49.364Z,6.50
2023-02-20T05:12:17.098Z,6.35
2023-02-20T05:14:44.745Z,6.21
2023-02-20T05:17:12.480Z,6.08
2023-02-20T05:19:40.178Z,5.96
2023-02-20T05:22:19.915Z,5.84
2023-02-20T05:24:49.047Z,5.73
2023-02-20T05:27:19.458Z,5.65
2023-02-20T05:29:51.450Z,5.57
2023-02-20T05:32:19.819Z,5.50
2023-02-20T05:34:48.237Z,5.45
2023-02-20T05:37:17.343Z,5.40
2023-02-20T05:39:46.644Z,5.35
2023-02-20T05:42:15.068Z,5.30
2023-02-20T05:44:42.791Z,5.27
2023-02-20T05:47:11.151Z,5.45
2023-02-20T05:49:38.856Z,6.64
2023-02-20T05:52:11.481Z,8.04
2023-02-20T05:54:40.025Z,9.06
2023-02-20T05:57:08.604Z,8.65
2023-02-20T05:59:36.326Z,7.99
2023-02-20T06:02:04.013Z,7.52
2023-02-20T06:04:31.794Z,7.18
2023-02-20T06:06:59.831Z,6.89
2023-02-20T06:09:27.484Z,6.62
2023-02-20T06:11:56.571Z,6.38
2023-02-20T06:14:26.057Z,6.19
2023-02-20T06:16:53.812Z,6.05
2023-02-20T06:19:24.874Z,5.92
2023-02-20T06:21:53.819Z,5.80
2023-02-20T06:24:22.047Z,5.72
2023-02-20T06:26:50.104Z,5.65
2023-02-20T06:29:18.194Z,5.58
2023-02-20T06:31:46.537Z,5.82
2023-02-20T06:34:15.967Z,7.34
2023-02-20T06:36:44.083Z,8.88
2023-02-20T06:39:13.510Z,9.59
2023-02-20T06:41:41.414Z,9.10
2023-02-20T06:44:09.130Z,8.41
2023-02-20T06:46:37.011Z,7.92
2023-02-20T06:49:04.747Z,7.58
2023-02-20T06:51:34.001Z,7.32
2023-02-20T06:54:03.162Z,7.10
2023-02-20T06:56:32.794Z,6.92
2023-02-20T06:59:01.718Z,6.77
2023-02-20T07:01:31.446Z,6.67
2023-02-20T07:03:59.999Z,6.58
2023-02-20T07:06:28.469Z,6.51
2023-02-20T07:08:56.211Z,6.69
2023-02-20T07:11:24.579Z,7.79
2023-02-20T07:13:52.339Z,9.03
2023-02-20T07:16:20.148Z,10.10
2023-02-20T07:18:48.005Z,10.66
2023-02-20T07:21:16.613Z,10.08
2023-02-20T07:23:45.162Z,9.36
2023-02-20T07:26:24.920Z,8.82
2023-02-20T07:28:54.736Z,8.40
2023-02-20T07:31:22.726Z,8.13
2023-02-20T07:33:50.860Z,7.90
2023-02-20T07:36:18.878Z,7.72
2023-02-20T07:38:54.237Z,7.59
2023-02-20T07:41:22.633Z,7.50
2023-02-20T07:43:50.374Z,7.45
2023-02-20T07:46:20.247Z,8.25
2023-02-20T07:48:48.330Z,9.75
2023-02-20T07:51:16.814Z,10.14
2023-02-20T07:53:49.727Z,9.47
2023-02-20T07:56:18.803Z,8.88
2023-02-20T07:58:46.870Z,8.43
2023-02-20T08:01:15.045Z,8.16
2023-02-20T08:03:42.975Z,8.12
2023-02-20T08:06:11.263Z,9.25
2023-02-20T08:08:39.340Z,10.53
2023-02-20T08:11:10.044Z,10.46
2023-02-20T08:13:38.850Z,9.74
2023-02-20T08:16:06.986Z,9.23
2023-02-20T08:18:34.683Z,8.84
2023-02-20T08:21:02.759Z,8.80
2023-02-20T08:23:30.528Z,9.81
2023-02-20T08:26:00.084Z,10.51
2023-02-20T08:28:27.886Z,10.20
2023-02-20T08:30:55.665Z,9.62
2023-02-20T08:33:23.372Z,9.19
2023-02-20T08:35:54.111Z,8.90
2023-02-20T08:38:31.203Z,9.11
2023-02-20T08:40:59.292Z,10.50
2023-02-20T08:43:28.264Z,11.18
2023-02-20T08:45:56.537Z,10.76
2023-02-20T08:48:24.683Z,10.16
2023-02-20T08:50:53.233Z,9.72
2023-02-20T08:53:21.016Z,9.40
2023-02-20T08:55:48.851Z,9.15
2023-02-20T08:58:23.549Z,9.26
2023-02-20T14:02:41.530Z,14.37
2023-02-20T14:05:27.728Z,14.34
2023-02-20T14:07:55.521Z,14.25
2023-02-20T14:10:30.806Z,14.10
2023-02-20T14:13:05.758Z,13.91
2023-02-20T14:15:43.078Z,13.67
2023-02-20T14:18:24.843Z,13.47
2023-02-20T14:21:01.021Z,13.30
2023-02-20T14:23:29.720Z,13.14
2023-02-20T14:26:00.696Z,12.99
2023-02-20T14:28:34.760Z,12.89
2023-02-20T14:31:04.528Z,12.83
2023-02-20T14:33:33.249Z,12.80
2023-02-20T14:36:04.517Z,12.77
2023-02-20T14:38:52.595Z,12.75
2023-02-20T14:41:24.201Z,12.70
2023-02-20T14:43:57.072Z,12.74
2023-02-20T14:46:30.416Z,12.68
2023-02-20T14:49:28.998Z,12.66
2023-02-20T14:52:11.662Z,12.64
2023-02-20T14:54:43.992Z,12.61
2023-02-20T14:57:15.110Z,12.57
2023-02-20T14:59:43.041Z,12.52
2023-02-20T15:02:31.323Z,12.48
2023-02-20T15:05:05.559Z,12.44
2023-02-20T15:07:33.420Z,12.43
2023-02-20T15:10:05.048Z,12.40
2023-02-20T15:12:36.076Z,12.39
2023-02-20T15:15:13.300Z,12.39
2023-02-20T15:17:42.867Z,12.39
2023-02-20T15:20:17.482Z,12.36
2023-02-20T15:22:45.310Z,12.32
2023-02-20T15:25:30.654Z,12.32
2023-02-20T15:28:05.585Z,12.31
2023-02-20T15:30:33.795Z,12.32
2023-02-20T15:33:01.928Z,12.31
2023-02-20T15:35:32.683Z,12.30
2023-02-20T15:38:02.861Z,12.31
2023-02-20T15:40:33.806Z,12.32
2023-02-20T15:43:04.871Z,12.32
2023-02-20T15:45:37.716Z,12.33
2023-02-20T15:48:07.206Z,12.33
2023-02-20T15:50:35.947Z,12.34
2023-02-20T15:53:04.807Z,12.35
2023-02-20T15:55:34.299Z,12.36
2023-02-20T15:58:04.569Z,12.34
2023-02-20T16:00:34.417Z,12.35
2023-02-20T16:03:02.631Z,12.34
2023-02-20T16:05:31.102Z,12.31
2023-02-20T16:07:58.807Z,12.29
2023-02-20T16:10:26.565Z,12.28
2023-02-20T16:12:56.489Z,12.25
2023-02-20T16:15:25.448Z,12.22
2023-02-20T16:17:54.346Z,12.21
2023-02-20T16:20:28.922Z,12.18
2023-02-20T16:22:56.944Z,12.15
2023-02-20T16:25:24.852Z,12.12
2023-02-20T16:27:54.097Z,12.15
2023-02-20T16:30:38.774Z,12.10
2023-02-20T16:33:17.842Z,12.02
2023-02-20T16:35:46.913Z,11.96
2023-02-20T16:38:14.966Z,11.95
2023-02-20T16:40:42.974Z,11.92
2023-02-20T16:43:13.933Z,11.88
2023-02-20T16:45:44.621Z,11.83
2023-02-20T16:48:15.207Z,11.80
2023-02-20T16:50:43.177Z,11.77
2023-02-20T16:53:12.660Z,11.75
2023-02-20T16:55:44.432Z,11.75
2023-02-20T16:58:12.197Z,11.74
2023-02-20T17:00:55.067Z,11.74
2023-02-20T17:03:24.574Z,11.71
2023-02-20T17:05:59.272Z,11.63
2023-02-20T17:08:27.532Z,11.58
2023-02-20T17:10:55.676Z,11.52
2023-02-20T17:13:23.304Z,11.51
2023-02-20T17:15:51.042Z,12.12
2023-02-20T17:18:18.957Z,13.31
2023-02-20T17:20:46.676Z,13.60
2023-02-20T17:23:14.439Z,13.14
2023-02-20T17:25:42.670Z,12.68
2023-02-20T17:28:11.675Z,12.35
2023-02-20T17:30:39.580Z,12.13
2023-02-20T17:33:07.316Z,11.95
2023-02-20T17:35:35.070Z,11.80
2023-02-20T17:38:02.966Z,11.66
2023-02-20T17:40:30.667Z,11.57
2023-02-20T17:42:58.319Z,11.48
2023-02-20T17:45:26.363Z,11.65
2023-02-20T17:47:54.108Z,12.65
2023-02-20T17:50:22.000Z,13.45
2023-02-20T17:52:54.729Z,13.16
2023-02-20T17:55:25.184Z,12.62
2023-02-20T17:57:53.029Z,12.23
2023-02-20T18:00:21.877Z,11.93
2023-02-20T18:02:49.724Z,11.71
2023-02-20T18:05:17.679Z,11.54
2023-02-20T18:07:46.402Z,12.24
2023-02-20T18:10:14.235Z,13.28
2023-02-20T18:12:43.626Z,13.01
2023-02-20T18:15:12.379Z,12.44
2023-02-20T18:17:40.077Z,12.03
2023-02-20T18:20:08.194Z,11.71
2023-02-20T18:22:36.379Z,11.56
2023-02-20T18:25:04.555Z,12.25
2023-02-20T18:27:32.215Z,12.77
2023-02-20T18:30:00.000Z,12.41
2023-02-20T18:32:27.766Z,12.02
2023-02-20T18:34:55.584Z,11.73
2023-02-20T18:37:23.228Z,11.52
2023-02-20T18:39:50.902Z,11.36
2023-02-20T18:42:18.719Z,11.32
2023-02-20T18:44:48.627Z,12.16
2023-02-20T18:47:17.101Z,13.04
2023-02-20T18:49:48.272Z,12.79
2023-02-20T18:52:17.525Z,12.26
2023-02-20T18:54:47.408Z,11.88
2023-02-20T18:57:15.220Z,11.62
2023-02-20T18:59:43.873Z,11.44
2023-02-20T19:02:16.111Z,11.31
2023-02-20T19:04:43.810Z,11.99
2023-02-20T19:07:11.456Z,12.72
2023-02-20T19:09:39.742Z,12.54
2023-02-20T19:12:07.765Z,12.10
2023-02-20T19:14:36.275Z,11.76
2023-02-20T19:17:04.285Z,11.52
2023-02-20T19:19:32.546Z,11.37
2023-02-20T19:22:01.049Z,11.26
2023-02-20T19:24:28.856Z,11.21
2023-02-20T19:26:56.664Z,11.14
2023-02-20T19:29:24.588Z,11.09
2023-02-20T19:31:52.748Z,11.03
2023-02-20T19:34:20.530Z,10.98
2023-02-20T19:36:48.356Z,11.24
2023-02-20T19:39:16.161Z,12.39
2023-02-20T19:41:48.870Z,12.60
2023-02-20T19:44:17.017Z,12.20
2023-02-20T19:46:45.029Z,11.88
2023-02-20T19:49:13.761Z,11.66
2023-02-20T19:51:52.623Z,11.48
2023-02-20T19:54:23.725Z,11.34
2023-02-20T19:57:01.422Z,11.26
2023-02-20T19:59:29.493Z,11.20
2023-02-20T20:01:59.557Z,11.21
2023-02-20T20:04:30.591Z,11.17
2023-02-20T20:06:59.524Z,11.11
2023-02-20T20:09:36.026Z,11.12
2023-02-20T20:12:26.732Z,11.09
2023-02-20T20:14:55.065Z,11.09
2023-02-20T20:17:22.772Z,11.08
2023-02-20T20:20:00.589Z,11.10
2023-02-20T20:22:29.375Z,11.14
2023-02-20T20:24:57.346Z,11.11
2023-02-20T20:27:25.260Z,11.08
2023-02-20T20:29:53.404Z,11.14
2023-02-20T20:32:21.658Z,11.13
2023-02-20T20:34:55.601Z,11.13
2023-02-20T20:37:25.360Z,11.09
2023-02-20T20:39:54.546Z,11.02
2023-02-20T20:42:25.281Z,10.99
2023-02-20T20:44:56.553Z,11.01
2023-02-20T20:47:26.150Z,10.99
2023-02-20T20:49:54.206Z,10.98
2023-02-20T20:52:24.697Z,11.00
2023-02-20T20:54:56.150Z,10.95
2023-02-20T20:57:26.156Z,10.94
2023-02-20T20:59:55.832Z,10.92
2023-02-20T21:02:23.581Z,10.91
2023-02-20T21:04:58.044Z,10.94
2023-02-20T21:07:35.696Z,10.94
2023-02-20T21:10:03.889Z,10.90
2023-02-20T21:12:31.586Z,10.89
2023-02-20T21:14:59.340Z,10.90
2023-02-20T21:17:27.291Z,10.87
2023-02-20T21:19:54.986Z,10.85
2023-02-20T21:22:23.173Z,10.84
2023-02-20T21:24:51.268Z,10.86
2023-02-20T21:27:19.163Z,10.84
2023-02-20T21:29:46.829Z,10.85
2023-02-20T21:32:14.739Z,10.84
2023-02-20T21:34:42.398Z,11.12
2023-02-20T21:37:10.060Z,12.30
2023-02-20T21:39:37.771Z,12.53
2023-02-20T21:42:24.252Z,12.13
2023-02-20T21:44:52.048Z,11.77
2023-02-20T21:47:20.050Z,11.55
2023-02-20T21:49:48.380Z,11.39
2023-02-20T21:52:17.651Z,11.28
2023-02-20T21:54:50.384Z,11.17
2023-02-20T21:57:18.525Z,11.09
2023-02-20T21:59:46.117Z,11.02
2023-02-20T22:02:18.358Z,11.17
2023-02-20T22:04:45.918Z,12.40
2023-02-20T22:07:33.068Z,13.22
2023-02-20T22:10:19.526Z,12.89
2023-02-20T22:13:06.191Z,12.38
2023-02-20T22:15:52.789Z,11.95
2023-02-20T22:18:39.691Z,11.65
2023-02-20T22:21:26.189Z,11.45
2023-02-20T22:24:12.794Z,11.29
2023-02-20T22:26:59.195Z,11.16
2023-02-20T22:29:45.621Z,11.45
2023-02-20T22:32:32.124Z,12.60
2023-02-20T22:35:18.732Z,12.65
2023-02-20T22:38:05.255Z,12.15
2023-02-20T22:40:51.472Z,11.77
2023-02-20T22:43:38.202Z,11.51
2023-02-20T22:46:26.462Z,11.41
2023-02-20T22:49:14.554Z,12.46
2023-02-20T22:52:05.954Z,13.35
2023-02-20T22:55:03.945Z,12.84
2023-02-20T22:57:52.014Z,12.23
2023-02-20T23:00:38.895Z,11.80
2023-02-20T23:03:25.357Z,11.53
2023-02-20T23:06:18.008Z,12.25
2023-02-20T23:09:09.026Z,13.25
2023-02-20T23:11:56.467Z,12.84
2023-02-20T23:14:43.392Z,12.20
2023-02-20T23:17:36.107Z,11.76
2023-02-20T23:20:29.213Z,11.87
2023-02-20T23:23:15.384Z,13.32
2023-02-20T23:26:02.253Z,13.34
2023-02-20T23:28:49.667Z,12.65
2023-02-20T23:31:36.950Z,12.11
2023-02-20T23:34:23.676Z,11.71
2023-02-20T23:37:11.138Z,11.96
2023-02-20T23:39:57.475Z,13.43
2023-02-20T23:42:43.827Z,13.99
2023-02-20T23:45:30.349Z,13.27
2023-02-20T23:48:17.648Z,12.62
2023-02-20T23:51:04.119Z,12.13
2023-02-20T23:53:57.083Z,11.82
2023-02-20T23:56:44.128Z,12.35
2023-02-20T23:59:31.341Z,13.40
